sensor_id;sensor_type;location;lat;lon;timestamp;temperature;humidity
8172;DHT22;4127;47.908;10.850;2022-09-30T18:15:46;11.00;99.90
8172;DHT22;4127;47.908;10.850;2022-09-30T18:18:13;11.00;99.90
8172;DHT22;4127;47.908;10.850;2022-09-30T18:20:44;11.10;99.90
8172;DHT22;4127;47.908;10.850;2022-09-30T18:23:11;11.10;99.90
8172;DHT22;4127;47.908;10.850;2022-09-30T18:25:38;10.90;99.90
8172;DHT22;4127;47.908;10.850;2022-09-30T18:28:07;10.80;99.90
8172;DHT22;4127;47.908;10.850;2022-09-30T18:30:35;10.60;99.90
8172;DHT22;4127;47.908;10.850;2022-09-30T18:33:03;10.60;99.90
8172;DHT22;4127;47.908;10.850;2022-09-30T18:35:37;10.50;99.90
8172;DHT22;4127;47.908;10.850;2022-09-30T18:38:05;10.50;99.90
8172;DHT22;4127;47.908;10.850;2022-09-30T18:40:32;10.60;99.90
8172;DHT22;4127;47.908;10.850;2022-09-30T18:43:01;10.50;99.90
8172;DHT22;4127;47.908;10.850;2022-09-30T18:45:30;10.30;99.90
8172;DHT22;4127;47.908;10.850;2022-09-30T18:47:58;10.20;99.90
8172;DHT22;4127;47.908;10.850;2022-09-30T18:50:27;10.40;99.90
8172;DHT22;4127;47.908;10.850;2022-09-30T18:52:55;10.40;99.90
8172;DHT22;4127;47.908;10.850;2022-09-30T18:55:23;10.30;99.90
8172;DHT22;4127;47.908;10.850;2022-09-30T18:57:54;10.30;99.90
8172;DHT22;4127;47.908;10.850;2022-09-30T19:00:21;10.30;99.90
8172;DHT22;4127;47.908;10.850;2022-09-30T19:02:51;10.30;99.90
8172;DHT22;4127;47.908;10.850;2022-09-30T19:05:18;10.30;99.90
8172;DHT22;4127;47.908;10.850;2022-09-30T19:07:45;10.20;99.90
8172;DHT22;4127;47.908;10.850;2022-09-30T19:10:12;10.20;99.90
8172;DHT22;4127;47.908;10.850;2022-09-30T19:12:39;10.20;99.90
8172;DHT22;4127;47.908;10.850;2022-09-30T19:15:11;10.20;99.90
8172;DHT22;4127;47.908;10.850;2022-09-30T19:17:42;10.20;99.90
8172;DHT22;4127;47.908;10.850;2022-09-30T19:20:09;10.20;99.90
8172;DHT22;4127;47.908;10.850;2022-09-30T19:22:36;10.10;99.90
8172;DHT22;4127;47.908;10.850;2022-09-30T19:25:05;10.00;99.90
8172;DHT22;4127;47.908;10.850;2022-09-30T19:27:32;10.10;99.90
8172;DHT22;4127;47.908;10.850;2022-09-30T19:30:01;10.00;99.90
8172;DHT22;4127;47.908;10.850;2022-09-30T19:32:28;10.00;99.90
8172;DHT22;4127;47.908;10.850;2022-09-30T19:35:00;10.10;99.90
8172;DHT22;4127;47.908;10.850;2022-09-30T19:37:32;10.10;99.90
8172;DHT22;4127;47.908;10.850;2022-09-30T19:39:59;10.00;99.90
8172;DHT22;4127;47.908;10.850;2022-09-30T19:42:41;10.10;99.90
8172;DHT22;4127;47.908;10.850;2022-09-30T19:45:09;10.10;99.90
8172;DHT22;4127;47.908;10.850;2022-09-30T19:47:36;10.10;99.90
8172;DHT22;4127;47.908;10.850;2022-09-30T19:50:03;10.10;99.90
8172;DHT22;4127;47.908;10.850;2022-09-30T19:52:32;10.00;99.90
8172;DHT22;4127;47.908;10.850;2022-09-30T19:54:59;9.90;99.90
8172;DHT22;4127;47.908;10.850;2022-09-30T19:57:40;9.90;99.90
8172;DHT22;4127;47.908;10.850;2022-09-30T20:00:09;9.80;99.90
8172;DHT22;4127;47.908;10.850;2022-09-30T20:02:38;9.80;99.90
8172;DHT22;4127;47.908;10.850;2022-09-30T20:05:05;9.80;99.90
8172;DHT22;4127;47.908;10.850;2022-09-30T20:07:33;9.80;99.90
8172;DHT22;4127;47.908;10.850;2022-09-30T20:10:00;9.70;99.90
8172;DHT22;4127;47.908;10.850;2022-09-30T20:12:27;9.70;99.90
8172;DHT22;4127;47.908;10.850;2022-09-30T20:14:55;9.70;99.90
8172;DHT22;4127;47.908;10.850;2022-09-30T20:17:41;9.80;99.90
8172;DHT22;4127;47.908;10.850;2022-09-30T20:20:11;9.70;99.90
8172;DHT22;4127;47.908;10.850;2022-09-30T20:22:59;9.80;99.90
8172;DHT22;4127;47.908;10.850;2022-09-30T20:25:26;9.70;99.90
8172;DHT22;4127;47.908;10.850;2022-09-30T20:27:53;9.60;99.90
8172;DHT22;4127;47.908;10.850;2022-09-30T20:30:20;9.60;99.90
8172;DHT22;4127;47.908;10.850;2022-09-30T20:32:46;9.60;99.90
8172;DHT22;4127;47.908;10.850;2022-09-30T20:35:13;9.60;99.90
8172;DHT22;4127;47.908;10.850;2022-09-30T20:37:41;9.60;99.90
8172;DHT22;4127;47.908;10.850;2022-09-30T20:40:08;9.60;99.90
8172;DHT22;4127;47.908;10.850;2022-09-30T20:42:35;9.60;99.90
8172;DHT22;4127;47.908;10.850;2022-09-30T20:45:05;9.50;99.90
8172;DHT22;4127;47.908;10.850;2022-09-30T20:47:41;9.50;99.90
8172;DHT22;4127;47.908;10.850;2022-09-30T20:50:08;9.70;99.90
8172;DHT22;4127;47.908;10.850;2022-09-30T20:52:35;9.60;99.90
8172;DHT22;4127;47.908;10.850;2022-09-30T20:55:02;9.60;99.90
8172;DHT22;4127;47.908;10.850;2022-09-30T20:57:29;9.70;99.90
8172;DHT22;4127;47.908;10.850;2022-09-30T20:59:57;9.60;99.90
8172;DHT22;4127;47.908;10.850;2022-09-30T21:02:26;9.60;99.90
8172;DHT22;4127;47.908;10.850;2022-09-30T21:04:54;9.60;99.90
8172;DHT22;4127;47.908;10.850;2022-09-30T21:07:23;9.70;99.90
8172;DHT22;4127;47.908;10.850;2022-09-30T21:09:51;9.50;99.90
8172;DHT22;4127;47.908;10.850;2022-09-30T21:12:17;9.60;99.90
8172;DHT22;4127;47.908;10.850;2022-09-30T21:14:44;9.60;99.90
8172;DHT22;4127;47.908;10.850;2022-09-30T21:17:11;9.70;99.90
8172;DHT22;4127;47.908;10.850;2022-09-30T21:19:38;9.50;99.90
8172;DHT22;4127;47.908;10.850;2022-09-30T21:22:05;9.60;99.90
8172;DHT22;4127;47.908;10.850;2022-09-30T21:24:32;9.60;99.90
8172;DHT22;4127;47.908;10.850;2022-09-30T21:26:59;9.70;99.90
8172;DHT22;4127;47.908;10.850;2022-09-30T21:29:27;9.60;99.90
8172;DHT22;4127;47.908;10.850;2022-09-30T21:31:56;9.60;99.90
8172;DHT22;4127;47.908;10.850;2022-09-30T21:34:23;9.60;99.90
8172;DHT22;4127;47.908;10.850;2022-09-30T21:36:49;9.60;99.90
8172;DHT22;4127;47.908;10.850;2022-09-30T21:39:16;9.60;99.90
8172;DHT22;4127;47.908;10.850;2022-09-30T21:41:44;9.60;99.90
8172;DHT22;4127;47.908;10.850;2022-09-30T21:44:10;9.50;99.90
8172;DHT22;4127;47.908;10.850;2022-09-30T21:46:37;9.50;99.90
8172;DHT22;4127;47.908;10.850;2022-09-30T21:49:17;9.60;99.90
8172;DHT22;4127;47.908;10.850;2022-09-30T21:51:45;9.60;99.90
8172;DHT22;4127;47.908;10.850;2022-09-30T21:54:12;9.70;99.90
8172;DHT22;4127;47.908;10.850;2022-09-30T21:56:40;9.80;99.90
8172;DHT22;4127;47.908;10.850;2022-09-30T21:59:09;9.80;99.90
8172;DHT22;4127;47.908;10.850;2022-09-30T22:01:36;9.90;99.90
8172;DHT22;4127;47.908;10.850;2022-09-30T22:04:03;9.90;99.90
8172;DHT22;4127;47.908;10.850;2022-09-30T22:06:31;9.80;99.90
8172;DHT22;4127;47.908;10.850;2022-09-30T22:08:58;9.80;99.90
8172;DHT22;4127;47.908;10.850;2022-09-30T22:11:28;9.80;99.90
8172;DHT22;4127;47.908;10.850;2022-09-30T22:13:58;9.90;99.90
8172;DHT22;4127;47.908;10.850;2022-09-30T22:16:27;9.80;99.90
8172;DHT22;4127;47.908;10.850;2022-09-30T22:18:57;9.80;99.90
8172;DHT22;4127;47.908;10.850;2022-09-30T22:21:28;9.80;99.90
8172;DHT22;4127;47.908;10.850;2022-09-30T22:23:58;9.80;99.90
8172;DHT22;4127;47.908;10.850;2022-09-30T22:26:25;10.00;99.90
8172;DHT22;4127;47.908;10.850;2022-09-30T22:28:55;9.90;99.90
8172;DHT22;4127;47.908;10.850;2022-09-30T22:31:24;9.80;99.90
8172;DHT22;4127;47.908;10.850;2022-09-30T22:33:57;9.80;99.90
8172;DHT22;4127;47.908;10.850;2022-09-30T22:36:43;9.80;99.90
8172;DHT22;4127;47.908;10.850;2022-09-30T22:39:28;9.70;99.90
8172;DHT22;4127;47.908;10.850;2022-09-30T22:41:56;9.80;99.90
8172;DHT22;4127;47.908;10.850;2022-09-30T22:44:25;9.90;99.90
8172;DHT22;4127;47.908;10.850;2022-09-30T22:46:52;9.90;99.90
8172;DHT22;4127;47.908;10.850;2022-09-30T22:49:19;9.80;99.90
8172;DHT22;4127;47.908;10.850;2022-09-30T22:51:53;9.80;99.90
8172;DHT22;4127;47.908;10.850;2022-09-30T22:54:21;9.90;99.90
8172;DHT22;4127;47.908;10.850;2022-09-30T22:56:48;9.80;99.90
8172;DHT22;4127;47.908;10.850;2022-09-30T22:59:19;9.90;99.90
8172;DHT22;4127;47.908;10.850;2022-09-30T23:01:47;10.00;99.90
8172;DHT22;4127;47.908;10.850;2022-09-30T23:04:16;10.00;99.90
8172;DHT22;4127;47.908;10.850;2022-09-30T23:06:45;9.90;99.90
8172;DHT22;4127;47.908;10.850;2022-09-30T23:09:14;9.90;99.90
8172;DHT22;4127;47.908;10.850;2022-09-30T23:11:41;10.00;99.90
8172;DHT22;4127;47.908;10.850;2022-09-30T23:14:08;10.00;99.90
8172;DHT22;4127;47.908;10.850;2022-09-30T23:16:35;10.00;99.90
8172;DHT22;4127;47.908;10.850;2022-09-30T23:19:02;10.10;99.90
8172;DHT22;4127;47.908;10.850;2022-09-30T23:21:29;10.10;99.90
8172;DHT22;4127;47.908;10.850;2022-09-30T23:23:57;10.10;99.90
8172;DHT22;4127;47.908;10.850;2022-09-30T23:26:26;10.10;99.90
8172;DHT22;4127;47.908;10.850;2022-09-30T23:28:58;10.10;99.90
8172;DHT22;4127;47.908;10.850;2022-09-30T23:31:26;10.10;99.90
8172;DHT22;4127;47.908;10.850;2022-09-30T23:33:55;10.10;99.90
8172;DHT22;4127;47.908;10.850;2022-09-30T23:36:25;10.10;99.90
8172;DHT22;4127;47.908;10.850;2022-09-30T23:39:03;10.00;99.90
8172;DHT22;4127;47.908;10.850;2022-09-30T23:41:31;9.90;99.90
8172;DHT22;4127;47.908;10.850;2022-09-30T23:43:58;9.80;99.90
8172;DHT22;4127;47.908;10.850;2022-09-30T23:46:25;9.80;99.90
8172;DHT22;4127;47.908;10.850;2022-09-30T23:48:52;9.80;99.90
8172;DHT22;4127;47.908;10.850;2022-09-30T23:51:19;9.80;99.90
8172;DHT22;4127;47.908;10.850;2022-09-30T23:53:46;9.70;99.90
8172;DHT22;4127;47.908;10.850;2022-09-30T23:56:14;9.60;99.90
8172;DHT22;4127;47.908;10.850;2022-09-30T23:58:42;9.50;99.90
